sensor_id;sensor_type;location;lat;lon;timestamp;pressure;altitude;pressure_sealevel;temperature;humidity
23361;BME280;11852;50.082;18.554;2023-03-15T00:00:51;97537.0;;;3.81;79.62
23361;BME280;11852;50.082;18.554;2023-03-15T00:01:56;97544.49;;;3.63;79.85
23361;BME280;11852;50.082;18.554;2023-03-15T00:03:03;97547.5;;;3.74;79.67
23361;BME280;11852;50.082;18.554;2023-03-15T00:04:10;97547.5;;;3.88;79.41
23361;BME280;11852;50.082;18.554;2023-03-15T00:05:16;97551.5;;;4.01;79.21
23361;BME280;11852;50.082;18.554;2023-03-15T00:06:23;97552.0;;;4.03;79.08
23361;BME280;11852;50.082;18.554;2023-03-15T00:07:30;97558.5;;;4.06;79.1
23361;BME280;11852;50.082;18.554;2023-03-15T00:08:37;97562.5;;;4.13;78.99
23361;BME280;11852;50.082;18.554;2023-03-15T00:09:43;97562.5;;;4.03;79.4
23361;BME280;11852;50.082;18.554;2023-03-15T00:10:52;97566.0;;;4.05;79.44
23361;BME280;11852;50.082;18.554;2023-03-15T00:11:58;97572.5;;;4.06;79.79
23361;BME280;11852;50.082;18.554;2023-03-15T00:13:05;97577.0;;;4.31;79.32
23361;BME280;11852;50.082;18.554;2023-03-15T00:14:12;97582.49;;;4.08;79.65
23361;BME280;11852;50.082;18.554;2023-03-15T00:15:19;97584.0;;;3.72;80.98
23361;BME280;11852;50.082;18.554;2023-03-15T00:16:29;97581.0;;;3.85;80.46
23361;BME280;11852;50.082;18.554;2023-03-15T00:17:36;97598.0;;;3.82;80.25
23361;BME280;11852;50.082;18.554;2023-03-15T00:18:44;97589.5;;;3.72;80.48
23361;BME280;11852;50.082;18.554;2023-03-15T00:19:50;97597.5;;;3.68;80.6
23361;BME280;11852;50.082;18.554;2023-03-15T00:20:57;97596.5;;;3.87;80.19
23361;BME280;11852;50.082;18.554;2023-03-15T00:22:04;97597.0;;;3.81;80.36
23361;BME280;11852;50.082;18.554;2023-03-15T00:23:14;97604.0;;;3.64;80.31
23361;BME280;11852;50.082;18.554;2023-03-15T00:24:21;97603.0;;;3.64;80.02
23361;BME280;11852;50.082;18.554;2023-03-15T00:25:29;97605.5;;;3.75;79.64
23361;BME280;11852;50.082;18.554;2023-03-15T00:26:35;97608.5;;;3.9;79.31
23361;BME280;11852;50.082;18.554;2023-03-15T00:27:42;97604.0;;;3.66;79.62
23361;BME280;11852;50.082;18.554;2023-03-15T00:28:49;97604.0;;;3.63;79.9
23361;BME280;11852;50.082;18.554;2023-03-15T00:29:56;97612.0;;;3.65;79.73
23361;BME280;11852;50.082;18.554;2023-03-15T00:31:07;97612.5;;;3.65;79.95
23361;BME280;11852;50.082;18.554;2023-03-15T00:32:13;97613.5;;;3.7;79.74
23361;BME280;11852;50.082;18.554;2023-03-15T00:33:19;97620.49;;;3.51;79.64
23361;BME280;11852;50.082;18.554;2023-03-15T00:34:26;97629.5;;;3.46;79.69
23361;BME280;11852;50.082;18.554;2023-03-15T00:35:41;97627.5;;;3.54;79.56
23361;BME280;11852;50.082;18.554;2023-03-15T00:36:47;97637.0;;;3.43;79.48
23361;BME280;11852;50.082;18.554;2023-03-15T00:37:54;97636.5;;;3.46;79.07
23361;BME280;11852;50.082;18.554;2023-03-15T00:39:01;97639.0;;;3.53;78.83
23361;BME280;11852;50.082;18.554;2023-03-15T00:40:10;97644.49;;;3.3;79.11
23361;BME280;11852;50.082;18.554;2023-03-15T00:41:17;97651.5;;;3.34;79.19
23361;BME280;11852;50.082;18.554;2023-03-15T00:42:24;97654.0;;;3.26;79.4
23361;BME280;11852;50.082;18.554;2023-03-15T00:43:32;97657.0;;;3.45;79.0
23361;BME280;11852;50.082;18.554;2023-03-15T00:44:38;97659.0;;;3.54;78.61
23361;BME280;11852;50.082;18.554;2023-03-15T00:45:45;97655.5;;;3.46;78.87
23361;BME280;11852;50.082;18.554;2023-03-15T00:46:53;97658.0;;;3.2;79.29
23361;BME280;11852;50.082;18.554;2023-03-15T00:48:00;97658.0;;;3.31;79.13
23361;BME280;11852;50.082;18.554;2023-03-15T00:49:07;97665.5;;;3.4;78.85
23361;BME280;11852;50.082;18.554;2023-03-15T00:50:15;97666.5;;;3.39;78.82
23361;BME280;11852;50.082;18.554;2023-03-15T00:51:22;97671.0;;;3.33;78.91
23361;BME280;11852;50.082;18.554;2023-03-15T00:52:33;97671.5;;;3.44;78.51
23361;BME280;11852;50.082;18.554;2023-03-15T00:53:36;97671.5;;;3.42;78.28
23361;BME280;11852;50.082;18.554;2023-03-15T00:54:43;97677.5;;;3.34;78.4
23361;BME280;11852;50.082;18.554;2023-03-15T00:55:49;97682.49;;;3.37;78.15
23361;BME280;11852;50.082;18.554;2023-03-15T00:56:56;97682.49;;;3.39;77.68
23361;BME280;11852;50.082;18.554;2023-03-15T00:58:03;97682.0;;;3.37;77.95
23361;BME280;11852;50.082;18.554;2023-03-15T00:59:10;97682.5;;;3.55;77.75
23361;BME280;11852;50.082;18.554;2023-03-15T01:00:20;97683.5;;;3.39;78.07
23361;BME280;11852;50.082;18.554;2023-03-15T01:01:28;97686.0;;;3.45;78.08
23361;BME280;11852;50.082;18.554;2023-03-15T01:02:35;97684.5;;;3.39;78.28
23361;BME280;11852;50.082;18.554;2023-03-15T01:03:42;97689.5;;;3.41;78.18
23361;BME280;11852;50.082;18.554;2023-03-15T01:04:50;97688.5;;;3.36;77.99
23361;BME280;11852;50.082;18.554;2023-03-15T01:05:57;97677.0;;;3.17;77.99
23361;BME280;11852;50.082;18.554;2023-03-15T01:07:04;97693.51;;;3.33;77.74
23361;BME280;11852;50.082;18.554;2023-03-15T01:08:11;97677.0;;;3.33;78.08
23361;BME280;11852;50.082;18.554;2023-03-15T01:09:18;97689.5;;;3.42;77.58
23361;BME280;11852;50.082;18.554;2023-03-15T01:10:24;97690.0;;;3.34;76.79
23361;BME280;11852;50.082;18.554;2023-03-15T01:11:31;97692.0;;;3.57;76.58
23361;BME280;11852;50.082;18.554;2023-03-15T01:12:38;97699.0;;;3.44;76.93
23361;BME280;11852;50.082;18.554;2023-03-15T01:13:45;97700.5;;;3.26;77.43
23361;BME280;11852;50.082;18.554;2023-03-15T01:14:52;97703.0;;;3.45;77.0
23361;BME280;11852;50.082;18.554;2023-03-15T01:15:59;97704.5;;;3.49;76.98
23361;BME280;11852;50.082;18.554;2023-03-15T01:17:09;97707.0;;;3.42;76.96
23361;BME280;11852;50.082;18.554;2023-03-15T01:18:16;97710.0;;;3.54;76.36
23361;BME280;11852;50.082;18.554;2023-03-15T01:19:22;97713.0;;;3.66;76.1
23361;BME280;11852;50.082;18.554;2023-03-15T01:20:29;97716.5;;;3.79;75.93
23361;BME280;11852;50.082;18.554;2023-03-15T01:21:36;97721.0;;;3.64;75.86
23361;BME280;11852;50.082;18.554;2023-03-15T01:22:43;97720.49;;;3.86;75.57
23361;BME280;11852;50.082;18.554;2023-03-15T01:23:51;97723.5;;;3.83;75.67
23361;BME280;11852;50.082;18.554;2023-03-15T01:24:57;97724.0;;;3.89;75.54
23361;BME280;11852;50.082;18.554;2023-03-15T01:26:06;97727.0;;;4.01;75.21
23361;BME280;11852;50.082;18.554;2023-03-15T01:27:14;97730.0;;;3.82;75.75
23361;BME280;11852;50.082;18.554;2023-03-15T01:28:21;97731.5;;;3.69;75.88
23361;BME280;11852;50.082;18.554;2023-03-15T01:29:29;97732.0;;;3.63;75.85
23361;BME280;11852;50.082;18.554;2023-03-15T01:30:36;97735.5;;;3.64;75.65
23361;BME280;11852;50.082;18.554;2023-03-15T01:31:44;97736.0;;;3.68;75.91
23361;BME280;11852;50.082;18.554;2023-03-15T01:32:51;97738.0;;;3.73;75.96
23361;BME280;11852;50.082;18.554;2023-03-15T01:33:58;97739.5;;;3.76;75.99
23361;BME280;11852;50.082;18.554;2023-03-15T01:35:05;97748.0;;;3.5;76.88
23361;BME280;11852;50.082;18.554;2023-03-15T01:36:11;97746.5;;;3.7;76.31
23361;BME280;11852;50.082;18.554;2023-03-15T01:37:20;97744.0;;;3.62;76.63
23361;BME280;11852;50.082;18.554;2023-03-15T01:38:27;97745.5;;;3.57;76.72
23361;BME280;11852;50.082;18.554;2023-03-15T01:39:34;97744.0;;;3.44;76.29
23361;BME280;11852;50.082;18.554;2023-03-15T01:40:41;97754.0;;;3.32;76.85
23361;BME280;11852;50.082;18.554;2023-03-15T01:41:47;97751.0;;;3.36;76.7
23361;BME280;11852;50.082;18.554;2023-03-15T01:43:18;97753.5;;;3.38;76.58
23361;BME280;11852;50.082;18.554;2023-03-15T01:44:15;97755.5;;;3.51;76.6
23361;BME280;11852;50.082;18.554;2023-03-15T01:46:38;97757.0;;;3.45;76.32
23361;BME280;11852;50.082;18.554;2023-03-15T01:47:45;97751.0;;;3.52;76.51
23361;BME280;11852;50.082;18.554;2023-03-15T01:48:59;97752.5;;;3.63;76.4
23361;BME280;11852;50.082;18.554;2023-03-15T01:50:06;97749.5;;;3.69;76.26
23361;BME280;11852;50.082;18.554;2023-03-15T01:51:18;97743.5;;;3.43;77.18
23361;BME280;11852;50.082;18.554;2023-03-15T01:52:27;97744.5;;;3.47;76.86
23361;BME280;11852;50.082;18.554;2023-03-15T01:53:31;97739.5;;;3.57;76.56
23361;BME280;11852;50.082;18.554;2023-03-15T01:54:46;97740.0;;;3.61;76.11
23361;BME280;11852;50.082;18.554;2023-03-15T01:55:49;97744.99;;;3.38;76.5
23361;BME280;11852;50.082;18.554;2023-03-15T01:57:03;97747.0;;;3.36;76.71
23361;BME280;11852;50.082;18.554;2023-03-15T01:58:07;97748.5;;;3.4;76.72
23361;BME280;11852;50.082;18.554;2023-03-15T01:59:15;97751.5;;;3.41;76.2
23361;BME280;11852;50.082;18.554;2023-03-15T02:00:21;97746.0;;;3.35;75.89
23361;BME280;11852;50.082;18.554;2023-03-15T02:01:28;97748.0;;;3.55;75.37
23361;BME280;11852;50.082;18.554;2023-03-15T02:02:35;97753.0;;;3.49;75.39
23361;BME280;11852;50.082;18.554;2023-03-15T02:03:45;97748.5;;;3.38;75.69
23361;BME280;11852;50.082;18.554;2023-03-15T02:04:54;97750.0;;;3.53;75.23
23361;BME280;11852;50.082;18.554;2023-03-15T02:06:00;97752.5;;;3.7;74.71
23361;BME280;11852;50.082;18.554;2023-03-15T02:07:06;97756.5;;;3.66;74.66
23361;BME280;11852;50.082;18.554;2023-03-15T02:08:14;97760.5;;;3.56;74.76
23361;BME280;11852;50.082;18.554;2023-03-15T02:09:19;97760.5;;;3.54;74.92
23361;BME280;11852;50.082;18.554;2023-03-15T02:10:29;97758.5;;;3.65;74.62
23361;BME280;11852;50.082;18.554;2023-03-15T02:11:33;97763.0;;;3.79;74.05
23361;BME280;11852;50.082;18.554;2023-03-15T02:12:42;97761.5;;;3.57;74.52
23361;BME280;11852;50.082;18.554;2023-03-15T02:13:48;97757.0;;;3.61;74.13
23361;BME280;11852;50.082;18.554;2023-03-15T02:14:54;97764.5;;;3.67;73.94
23361;BME280;11852;50.082;18.554;2023-03-15T02:16:04;97757.99;;;3.66;73.64
23361;BME280;11852;50.082;18.554;2023-03-15T02:17:11;97762.5;;;3.68;73.43
23361;BME280;11852;50.082;18.554;2023-03-15T02:18:19;97762.5;;;3.51;73.49
23361;BME280;11852;50.082;18.554;2023-03-15T02:22:13;97770.49;;;3.72;72.57
23361;BME280;11852;50.082;18.554;2023-03-15T02:23:08;97769.49;;;3.63;72.78
23361;BME280;11852;50.082;18.554;2023-03-15T02:25:04;97772.5;;;3.41;73.06
23361;BME280;11852;50.082;18.554;2023-03-15T02:25:43;97774.5;;;3.51;72.85
23361;BME280;11852;50.082;18.554;2023-03-15T02:26:50;97775.0;;;3.43;73.03
23361;BME280;11852;50.082;18.554;2023-03-15T02:27:56;97776.0;;;3.46;72.96
23361;BME280;11852;50.082;18.554;2023-03-15T02:29:03;97775.5;;;3.49;72.83
23361;BME280;11852;50.082;18.554;2023-03-15T02:30:10;97772.5;;;3.68;72.67
23361;BME280;11852;50.082;18.554;2023-03-15T02:31:17;97769.99;;;3.72;72.63
23361;BME280;11852;50.082;18.554;2023-03-15T02:32:24;97769.49;;;3.71;72.49
23361;BME280;11852;50.082;18.554;2023-03-15T02:34:49;97772.0;;;3.38;73.32
23361;BME280;11852;50.082;18.554;2023-03-15T02:36:05;97769.0;;;3.43;72.94
23361;BME280;11852;50.082;18.554;2023-03-15T02:37:03;97768.5;;;3.45;73.13
23361;BME280;11852;50.082;18.554;2023-03-15T02:38:10;97773.5;;;3.6;72.65
23361;BME280;11852;50.082;18.554;2023-03-15T02:39:18;97776.0;;;3.7;72.35
23361;BME280;11852;50.082;18.554;2023-03-15T02:40:26;97779.51;;;3.58;72.74
23361;BME280;11852;50.082;18.554;2023-03-15T02:41:38;97781.5;;;3.64;72.4
23361;BME280;11852;50.082;18.554;2023-03-15T02:42:43;97788.5;;;3.74;72.49
23361;BME280;11852;50.082;18.554;2023-03-15T02:43:50;97795.0;;;3.7;72.79
23361;BME280;11852;50.082;18.554;2023-03-15T02:44:57;97795.5;;;3.39;73.26
23361;BME280;11852;50.082;18.554;2023-03-15T02:46:04;97795.0;;;3.4;72.92
23361;BME280;11852;50.082;18.554;2023-03-15T02:47:19;97798.5;;;3.53;72.65
23361;BME280;11852;50.082;18.554;2023-03-15T02:48:29;97805.5;;;3.58;72.97
23361;BME280;11852;50.082;18.554;2023-03-15T02:49:39;97808.5;;;3.66;72.74
23361;BME280;11852;50.082;18.554;2023-03-15T02:50:42;97808.0;;;3.68;72.67
23361;BME280;11852;50.082;18.554;2023-03-15T02:51:49;97805.01;;;3.66;72.53
23361;BME280;11852;50.082;18.554;2023-03-15T02:52:56;97809.5;;;3.56;72.74
23361;BME280;11852;50.082;18.554;2023-03-15T02:54:02;97812.0;;;3.47;72.73
23361;BME280;11852;50.082;18.554;2023-03-15T02:55:09;97812.0;;;3.44;73.13
23361;BME280;11852;50.082;18.554;2023-03-15T02:56:19;97816.0;;;3.55;72.75
23361;BME280;11852;50.082;18.554;2023-03-15T02:57:26;97814.0;;;3.48;73.07
23361;BME280;11852;50.082;18.554;2023-03-15T02:58:33;97820.0;;;3.52;72.96
23361;BME280;11852;50.082;18.554;2023-03-15T02:59:40;97824.0;;;3.54;72.85
23361;BME280;11852;50.082;18.554;2023-03-15T03:00:46;97828.5;;;3.54;72.89
23361;BME280;11852;50.082;18.554;2023-03-15T03:01:53;97825.5;;;3.57;72.92
23361;BME280;11852;50.082;18.554;2023-03-15T03:03:00;97826.0;;;3.63;72.74
23361;BME280;11852;50.082;18.554;2023-03-15T03:04:07;97828.5;;;3.68;72.83
23361;BME280;11852;50.082;18.554;2023-03-15T03:05:14;97827.5;;;3.59;73.05
23361;BME280;11852;50.082;18.554;2023-03-15T03:06:21;97827.5;;;3.51;73.24
23361;BME280;11852;50.082;18.554;2023-03-15T03:07:28;97829.51;;;3.53;73.36
23361;BME280;11852;50.082;18.554;2023-03-15T03:08:35;97829.5;;;3.55;73.25
23361;BME280;11852;50.082;18.554;2023-03-15T03:09:41;97829.51;;;3.64;73.06
23361;BME280;11852;50.082;18.554;2023-03-15T03:10:48;97829.0;;;3.75;72.96
23361;BME280;11852;50.082;18.554;2023-03-15T03:11:55;97823.0;;;3.57;73.35
23361;BME280;11852;50.082;18.554;2023-03-15T03:13:02;97826.0;;;3.49;73.74
23361;BME280;11852;50.082;18.554;2023-03-15T03:14:08;97821.5;;;3.52;73.65
23361;BME280;11852;50.082;18.554;2023-03-15T03:15:15;97823.5;;;3.29;74.31
23361;BME280;11852;50.082;18.554;2023-03-15T03:16:22;97823.0;;;3.45;73.67
23361;BME280;11852;50.082;18.554;2023-03-15T03:17:29;97821.5;;;3.8;72.63
23361;BME280;11852;50.082;18.554;2023-03-15T03:18:36;97819.49;;;3.82;72.7
23361;BME280;11852;50.082;18.554;2023-03-15T03:19:43;97824.0;;;3.74;72.66
23361;BME280;11852;50.082;18.554;2023-03-15T03:20:50;97818.0;;;3.64;72.96
23361;BME280;11852;50.082;18.554;2023-03-15T03:21:57;97825.0;;;3.64;73.1
23361;BME280;11852;50.082;18.554;2023-03-15T03:23:04;97823.5;;;3.61;73.1
23361;BME280;11852;50.082;18.554;2023-03-15T03:24:11;97821.5;;;3.72;72.85
23361;BME280;11852;50.082;18.554;2023-03-15T03:25:24;97822.5;;;3.61;73.04
23361;BME280;11852;50.082;18.554;2023-03-15T03:26:31;97817.51;;;3.67;72.82
23361;BME280;11852;50.082;18.554;2023-03-15T03:27:38;97822.5;;;3.83;72.58
23361;BME280;11852;50.082;18.554;2023-03-15T03:28:45;97823.0;;;3.7;73.09
23361;BME280;11852;50.082;18.554;2023-03-15T03:29:51;97826.0;;;3.82;72.72
23361;BME280;11852;50.082;18.554;2023-03-15T03:30:58;97832.5;;;3.69;72.94
23361;BME280;11852;50.082;18.554;2023-03-15T03:32:05;97836.0;;;3.84;72.49
23361;BME280;11852;50.082;18.554;2023-03-15T03:33:12;97842.51;;;3.86;72.67
23361;BME280;11852;50.082;18.554;2023-03-15T03:34:20;97845.49;;;3.92;72.36
23361;BME280;11852;50.082;18.554;2023-03-15T03:35:26;97846.0;;;4.05;72.15
23361;BME280;11852;50.082;18.554;2023-03-15T03:36:35;97847.5;;;4.05;72.13
23361;BME280;11852;50.082;18.554;2023-03-15T03:37:42;97850.5;;;4.03;72.03
23361;BME280;11852;50.082;18.554;2023-03-15T03:38:49;97849.5;;;3.84;72.78
23361;BME280;11852;50.082;18.554;2023-03-15T03:39:57;97851.5;;;3.96;72.43
23361;BME280;11852;50.082;18.554;2023-03-15T03:41:04;97858.0;;;4.03;72.19
23361;BME280;11852;50.082;18.554;2023-03-15T03:42:11;97859.0;;;3.88;72.51
23361;BME280;11852;50.082;18.554;2023-03-15T03:43:18;97857.5;;;3.63;73.13
23361;BME280;11852;50.082;18.554;2023-03-15T03:44:25;97863.0;;;3.69;72.99
23361;BME280;11852;50.082;18.554;2023-03-15T03:45:32;97862.0;;;3.63;73.1
23361;BME280;11852;50.082;18.554;2023-03-15T03:46:40;97863.5;;;3.64;73.14
23361;BME280;11852;50.082;18.554;2023-03-15T03:47:48;97871.5;;;3.63;73.1
23361;BME280;11852;50.082;18.554;2023-03-15T03:48:55;97874.0;;;3.79;72.85
23361;BME280;11852;50.082;18.554;2023-03-15T03:50:02;97874.5;;;3.83;72.31
23361;BME280;11852;50.082;18.554;2023-03-15T03:51:09;97877.5;;;3.56;73.2
23361;BME280;11852;50.082;18.554;2023-03-15T03:52:16;97876.0;;;3.65;72.65
23361;BME280;11852;50.082;18.554;2023-03-15T03:53:26;97879.0;;;3.58;73.1
23361;BME280;11852;50.082;18.554;2023-03-15T03:54:33;97876.5;;;3.31;73.58
23361;BME280;11852;50.082;18.554;2023-03-15T03:55:39;97879.0;;;3.38;73.58
23361;BME280;11852;50.082;18.554;2023-03-15T03:56:49;97880.01;;;3.64;73.03
23361;BME280;11852;50.082;18.554;2023-03-15T03:57:55;97885.0;;;3.72;72.93
23361;BME280;11852;50.082;18.554;2023-03-15T03:59:02;97882.5;;;3.82;72.54
23361;BME280;11852;50.082;18.554;2023-03-15T04:00:12;97886.0;;;3.62;72.79
23361;BME280;11852;50.082;18.554;2023-03-15T04:01:16;97880.01;;;3.66;72.41
23361;BME280;11852;50.082;18.554;2023-03-15T04:02:24;97881.01;;;3.57;72.68
23361;BME280;11852;50.082;18.554;2023-03-15T04:03:31;97886.0;;;3.63;72.34
23361;BME280;11852;50.082;18.554;2023-03-15T04:04:38;97889.0;;;3.32;73.35
23361;BME280;11852;50.082;18.554;2023-03-15T04:05:44;97888.5;;;3.24;73.1
23361;BME280;11852;50.082;18.554;2023-03-15T04:06:52;97893.5;;;3.28;73.31
23361;BME280;11852;50.082;18.554;2023-03-15T04:07:59;97897.0;;;3.3;73.32
23361;BME280;11852;50.082;18.554;2023-03-15T04:09:06;97895.49;;;3.32;73.26
23361;BME280;11852;50.082;18.554;2023-03-15T04:10:13;97899.5;;;3.28;73.5
23361;BME280;11852;50.082;18.554;2023-03-15T04:11:19;97897.5;;;3.34;73.11
23361;BME280;11852;50.082;18.554;2023-03-15T04:12:28;97901.5;;;3.51;72.64
23361;BME280;11852;50.082;18.554;2023-03-15T04:13:34;97906.5;;;3.65;72.27
23361;BME280;11852;50.082;18.554;2023-03-15T04:14:41;97907.0;;;3.43;73.11
23361;BME280;11852;50.082;18.554;2023-03-15T04:15:48;97916.5;;;3.35;72.95
23361;BME280;11852;50.082;18.554;2023-03-15T04:16:55;97912.5;;;3.47;72.78
23361;BME280;11852;50.082;18.554;2023-03-15T04:18:03;97913.0;;;3.59;72.34
23361;BME280;11852;50.082;18.554;2023-03-15T04:19:10;97910.5;;;3.76;71.92
23361;BME280;11852;50.082;18.554;2023-03-15T04:20:16;97910.0;;;3.63;72.46
23361;BME280;11852;50.082;18.554;2023-03-15T04:21:24;97907.0;;;3.43;72.71
23361;BME280;11852;50.082;18.554;2023-03-15T04:22:31;97907.5;;;3.55;72.54
23361;BME280;11852;50.082;18.554;2023-03-15T04:23:38;97911.5;;;3.73;72.06
23361;BME280;11852;50.082;18.554;2023-03-15T04:24:45;97912.0;;;3.67;72.05
23361;BME280;11852;50.082;18.554;2023-03-15T04:25:52;97914.5;;;3.58;72.19
23361;BME280;11852;50.082;18.554;2023-03-15T04:26:59;97917.5;;;3.62;72.03
23361;BME280;11852;50.082;18.554;2023-03-15T04:28:07;97918.5;;;3.55;72.22
23361;BME280;11852;50.082;18.554;2023-03-15T04:29:13;97925.5;;;3.73;71.78
23361;BME280;11852;50.082;18.554;2023-03-15T04:30:20;97930.01;;;3.58;72.21
23361;BME280;11852;50.082;18.554;2023-03-15T04:31:27;97931.5;;;3.34;72.77
23361;BME280;11852;50.082;18.554;2023-03-15T04:32:34;97928.0;;;3.24;73.12
23361;BME280;11852;50.082;18.554;2023-03-15T04:33:41;97926.5;;;3.2;73.04
23361;BME280;11852;50.082;18.554;2023-03-15T04:34:48;97927.5;;;3.28;72.77
23361;BME280;11852;50.082;18.554;2023-03-15T04:35:55;97926.0;;;3.59;72.12
23361;BME280;11852;50.082;18.554;2023-03-15T04:37:02;97927.5;;;3.81;71.72
23361;BME280;11852;50.082;18.554;2023-03-15T04:38:09;97929.0;;;3.59;72.09
23361;BME280;11852;50.082;18.554;2023-03-15T04:39:15;97928.5;;;3.73;71.72
23361;BME280;11852;50.082;18.554;2023-03-15T04:40:23;97928.0;;;3.78;71.58
23361;BME280;11852;50.082;18.554;2023-03-15T04:41:32;97927.5;;;3.62;71.98
23361;BME280;11852;50.082;18.554;2023-03-15T04:42:39;97929.0;;;3.37;72.59
23361;BME280;11852;50.082;18.554;2023-03-15T04:43:46;97933.5;;;3.42;72.85
23361;BME280;11852;50.082;18.554;2023-03-15T04:44:52;97937.0;;;3.63;72.3
23361;BME280;11852;50.082;18.554;2023-03-15T04:45:59;97937.5;;;3.67;72.12
23361;BME280;11852;50.082;18.554;2023-03-15T04:47:06;97936.0;;;3.68;72.12
23361;BME280;11852;50.082;18.554;2023-03-15T04:48:13;97941.0;;;3.38;72.4
23361;BME280;11852;50.082;18.554;2023-03-15T04:49:20;97940.5;;;3.52;71.56
23361;BME280;11852;50.082;18.554;2023-03-15T04:50:28;97939.5;;;3.49;71.74
23361;BME280;11852;50.082;18.554;2023-03-15T04:51:34;97942.5;;;3.55;71.87
23361;BME280;11852;50.082;18.554;2023-03-15T04:52:40;97944.49;;;3.78;71.11
23361;BME280;11852;50.082;18.554;2023-03-15T04:53:47;97937.5;;;3.7;71.17
23361;BME280;11852;50.082;18.554;2023-03-15T04:54:55;97942.0;;;3.76;70.98
23361;BME280;11852;50.082;18.554;2023-03-15T04:56:02;97944.5;;;3.66;71.58
23361;BME280;11852;50.082;18.554;2023-03-15T04:57:09;97944.0;;;3.61;71.37
23361;BME280;11852;50.082;18.554;2023-03-15T04:58:16;97944.0;;;3.48;71.74
23361;BME280;11852;50.082;18.554;2023-03-15T04:59:26;97946.5;;;3.25;72.51
23361;BME280;11852;50.082;18.554;2023-03-15T05:00:33;97941.5;;;3.27;72.43
23361;BME280;11852;50.082;18.554;2023-03-15T05:01:40;97949.5;;;3.5;71.59
23361;BME280;11852;50.082;18.554;2023-03-15T05:02:47;97953.0;;;3.68;71.22
23361;BME280;11852;50.082;18.554;2023-03-15T05:03:54;97954.0;;;3.59;71.52
23361;BME280;11852;50.082;18.554;2023-03-15T05:05:01;97953.5;;;3.39;71.59
23361;BME280;11852;50.082;18.554;2023-03-15T05:06:09;97956.0;;;3.51;71.2
23361;BME280;11852;50.082;18.554;2023-03-15T05:07:17;97956.5;;;3.24;71.83
23361;BME280;11852;50.082;18.554;2023-03-15T05:08:24;97956.5;;;3.37;71.3
23361;BME280;11852;50.082;18.554;2023-03-15T05:09:32;97952.0;;;3.57;71.17
23361;BME280;11852;50.082;18.554;2023-03-15T05:10:39;97955.0;;;3.41;71.17
23361;BME280;11852;50.082;18.554;2023-03-15T05:11:47;97956.0;;;3.03;72.12
23361;BME280;11852;50.082;18.554;2023-03-15T05:12:54;97951.5;;;3.12;71.76
23361;BME280;11852;50.082;18.554;2023-03-15T05:14:01;97952.0;;;3.16;71.78
23361;BME280;11852;50.082;18.554;2023-03-15T05:15:10;97951.5;;;3.28;71.6
23361;BME280;11852;50.082;18.554;2023-03-15T05:16:17;97949.0;;;3.39;71.47
23361;BME280;11852;50.082;18.554;2023-03-15T05:17:24;97949.5;;;3.32;71.79
23361;BME280;11852;50.082;18.554;2023-03-15T05:18:31;97953.0;;;3.36;71.57
23361;BME280;11852;50.082;18.554;2023-03-15T05:19:38;97951.0;;;3.37;71.57
23361;BME280;11852;50.082;18.554;2023-03-15T05:20:45;97953.0;;;3.34;71.7
23361;BME280;11852;50.082;18.554;2023-03-15T05:21:56;97950.0;;;3.22;71.81
23361;BME280;11852;50.082;18.554;2023-03-15T05:23:04;97947.5;;;3.36;71.65
23361;BME280;11852;50.082;18.554;2023-03-15T05:24:13;97947.0;;;3.34;71.87
23361;BME280;11852;50.082;18.554;2023-03-15T05:25:20;97947.0;;;3.07;72.54
23361;BME280;11852;50.082;18.554;2023-03-15T05:26:27;97946.5;;;3.26;72.19
23361;BME280;11852;50.082;18.554;2023-03-15T05:27:36;97945.5;;;3.17;72.32
23361;BME280;11852;50.082;18.554;2023-03-15T05:28:42;97947.5;;;3.03;72.65
23361;BME280;11852;50.082;18.554;2023-03-15T05:29:49;97952.0;;;2.98;72.44
23361;BME280;11852;50.082;18.554;2023-03-15T05:30:56;97956.5;;;2.97;72.55
23361;BME280;11852;50.082;18.554;2023-03-15T05:32:04;97956.0;;;3.14;72.28
23361;BME280;11852;50.082;18.554;2023-03-15T05:33:12;97954.5;;;3.34;71.69
23361;BME280;11852;50.082;18.554;2023-03-15T05:34:19;97953.0;;;3.28;71.83
23361;BME280;11852;50.082;18.554;2023-03-15T05:35:26;97962.0;;;3.43;71.37
23361;BME280;11852;50.082;18.554;2023-03-15T05:36:34;97958.0;;;3.3;71.53
23361;BME280;11852;50.082;18.554;2023-03-15T05:37:41;97961.5;;;3.01;72.92
23361;BME280;11852;50.082;18.554;2023-03-15T05:38:48;97963.0;;;2.88;73.29
23361;BME280;11852;50.082;18.554;2023-03-15T05:39:55;97965.5;;;2.98;73.32
23361;BME280;11852;50.082;18.554;2023-03-15T05:41:02;97963.5;;;2.89;73.36
23361;BME280;11852;50.082;18.554;2023-03-15T05:42:09;97964.5;;;2.89;73.54
23361;BME280;11852;50.082;18.554;2023-03-15T05:43:17;97965.5;;;2.78;73.91
23361;BME280;11852;50.082;18.554;2023-03-15T05:44:24;97964.0;;;2.63;74.18
23361;BME280;11852;50.082;18.554;2023-03-15T05:45:34;97974.5;;;2.78;73.81
23361;BME280;11852;50.082;18.554;2023-03-15T05:46:40;97977.5;;;2.73;74.04
23361;BME280;11852;50.082;18.554;2023-03-15T05:47:48;97979.5;;;2.64;74.39
23361;BME280;11852;50.082;18.554;2023-03-15T05:48:55;97991.0;;;2.69;74.19
23361;BME280;11852;50.082;18.554;2023-03-15T05:50:03;97992.0;;;2.82;73.79
23361;BME280;11852;50.082;18.554;2023-03-15T05:51:11;97993.5;;;2.85;73.78
23361;BME280;11852;50.082;18.554;2023-03-15T05:52:18;97993.0;;;2.88;73.65
23361;BME280;11852;50.082;18.554;2023-03-15T05:53:28;97994.0;;;2.86;73.58
23361;BME280;11852;50.082;18.554;2023-03-15T05:54:38;97996.5;;;2.97;73.6
23361;BME280;11852;50.082;18.554;2023-03-15T05:55:45;97995.5;;;3.09;73.22
23361;BME280;11852;50.082;18.554;2023-03-15T05:56:52;97999.0;;;3.2;73.13
23361;BME280;11852;50.082;18.554;2023-03-15T05:58:01;98000.5;;;3.03;73.43
23361;BME280;11852;50.082;18.554;2023-03-15T05:59:09;98001.5;;;3.05;73.13
23361;BME280;11852;50.082;18.554;2023-03-15T06:00:16;98003.5;;;2.99;73.16
23361;BME280;11852;50.082;18.554;2023-03-15T06:01:23;98007.99;;;2.98;73.13
23361;BME280;11852;50.082;18.554;2023-03-15T06:02:33;98011.0;;;3.05;73.07
23361;BME280;11852;50.082;18.554;2023-03-15T06:03:40;98016.5;;;3.08;73.03
23361;BME280;11852;50.082;18.554;2023-03-15T06:04:48;98017.01;;;2.92;73.47
23361;BME280;11852;50.082;18.554;2023-03-15T06:05:55;98019.5;;;3.07;73.04
23361;BME280;11852;50.082;18.554;2023-03-15T06:07:02;98021.5;;;3.22;72.9
23361;BME280;11852;50.082;18.554;2023-03-15T06:08:09;98030.5;;;3.3;72.71